createdAt,value
2018-03-15T00:02:01.272Z,24.69
2018-03-15T00:04:35.591Z,24.60
2018-03-15T00:07:04.757Z,24.53
2018-03-15T00:09:34.418Z,24.57
2018-03-15T00:12:03.843Z,24.63
2018-03-15T00:14:33.219Z,24.64
2018-03-15T00:17:02.649Z,24.67
2018-03-15T00:19:32.611Z,24.67
2018-03-15T00:22:02.198Z,24.69
2018-03-15T00:24:31.117Z,24.73
2018-03-15T00:27:00.271Z,24.75
2018-03-15T00:29:30.049Z,24.73
2018-03-15T00:31:59.260Z,24.71
2018-03-15T00:34:28.882Z,24.68
2018-03-15T00:36:58.140Z,24.62
2018-03-15T00:39:27.403Z,24.50
2018-03-15T00:41:56.839Z,24.42
2018-03-15T00:44:26.476Z,24.37
2018-03-15T00:46:55.710Z,24.34
2018-03-15T00:49:24.939Z,24.23
2018-03-15T00:51:54.129Z,24.21
2018-03-15T00:54:25.455Z,24.14
2018-03-15T00:56:54.879Z,24.13
2018-03-15T00:59:24.301Z,24.10
2018-03-15T01:01:53.521Z,24.13
2018-03-15T01:04:23.047Z,24.13
2018-03-15T01:06:52.439Z,24.07
2018-03-15T01:09:21.586Z,24.08
2018-03-15T01:11:50.782Z,24.10
2018-03-15T01:14:19.818Z,24.13
2018-03-15T01:16:49.623Z,24.17
2018-03-15T01:19:19.168Z,24.15
2018-03-15T01:21:48.451Z,24.14
2018-03-15T01:24:17.572Z,24.13
2018-03-15T01:26:48.594Z,24.21
2018-03-15T01:29:17.951Z,24.30
2018-03-15T01:31:47.395Z,24.43
2018-03-15T01:34:16.699Z,24.56
2018-03-15T01:36:45.967Z,24.57
2018-03-15T01:39:15.542Z,24.65
2018-03-15T01:41:44.764Z,24.77
2018-03-15T01:44:14.106Z,24.95
2018-03-15T01:46:43.444Z,24.93
2018-03-15T01:49:12.550Z,24.92
2018-03-15T01:51:41.498Z,25.06
2018-03-15T01:54:10.617Z,25.44
2018-03-15T01:56:39.654Z,25.95
2018-03-15T01:59:09.026Z,26.44
2018-03-15T02:01:38.483Z,26.73
2018-03-15T02:04:07.561Z,26.76
2018-03-15T02:06:36.787Z,26.65
2018-03-15T02:09:06.558Z,27.03
2018-03-15T02:11:35.867Z,27.27
2018-03-15T02:14:05.147Z,27.38
2018-03-15T02:16:34.628Z,27.06
2018-03-15T02:19:04.847Z,27.13
2018-03-15T02:21:33.737Z,27.73
2018-03-15T02:24:03.051Z,28.39
2018-03-15T02:26:32.493Z,28.77
2018-03-15T02:29:02.004Z,28.69
2018-03-15T02:33:54.002Z,29.86
2018-03-15T02:36:23.757Z,29.84
2018-03-15T02:38:53.075Z,30.48
2018-03-15T02:41:22.271Z,30.87
2018-03-15T02:43:51.360Z,31.10
2018-03-15T02:46:20.912Z,31.25
2018-03-15T02:48:50.511Z,31.68
2018-03-15T02:51:20.320Z,31.49
2018-03-15T02:53:49.791Z,31.88
2018-03-15T02:56:19.041Z,31.62
2018-03-15T02:58:48.342Z,32.26
2018-03-15T03:01:18.171Z,32.39
2018-03-15T03:03:47.523Z,32.48
2018-03-15T03:06:16.954Z,32.19
2018-03-15T03:08:46.349Z,32.03
2018-03-15T03:11:15.605Z,31.99
2018-03-15T03:13:44.970Z,31.96
2018-03-15T03:16:14.328Z,32.73
2018-03-15T03:18:43.473Z,32.89
2018-03-15T03:21:12.663Z,33.56
2018-03-15T03:23:41.984Z,33.84
2018-03-15T03:26:10.840Z,34.40
2018-03-15T03:28:40.162Z,34.39
2018-03-15T03:31:10.638Z,34.63
2018-03-15T03:33:39.679Z,34.57
2018-03-15T03:36:09.049Z,34.84
2018-03-15T03:38:38.366Z,34.71
2018-03-15T03:41:07.545Z,35.05
2018-03-15T03:43:36.472Z,34.94
2018-03-15T03:46:06.030Z,35.11
2018-03-15T03:48:35.138Z,34.85
2018-03-15T03:51:04.162Z,34.91
2018-03-15T03:53:33.281Z,35.23
2018-03-15T03:56:02.190Z,35.22
2018-03-15T03:58:31.112Z,35.36
2018-03-15T04:01:00.283Z,35.63
2018-03-15T04:03:29.859Z,35.76
2018-03-15T04:05:59.482Z,35.16
2018-03-15T04:08:28.549Z,35.61
2018-03-15T04:10:57.835Z,36.42
2018-03-15T04:13:27.359Z,35.73
2018-03-15T04:15:57.341Z,36.32
2018-03-15T04:18:26.953Z,37.02
2018-03-15T04:20:56.144Z,36.24
2018-03-15T04:23:25.457Z,36.38
2018-03-15T04:25:54.953Z,36.65
2018-03-15T04:28:24.203Z,36.66
2018-03-15T04:30:53.248Z,36.41
2018-03-15T04:33:23.299Z,36.90
2018-03-15T04:35:52.702Z,36.47
2018-03-15T04:38:22.216Z,36.33
2018-03-15T04:40:51.585Z,36.08
2018-03-15T04:43:20.912Z,36.54
2018-03-15T04:45:50.057Z,37.13
2018-03-15T04:48:19.170Z,37.20
2018-03-15T04:50:48.680Z,37.67
2018-03-15T04:53:17.990Z,37.66
2018-03-15T04:55:47.170Z,37.06
2018-03-15T04:58:16.641Z,37.18
2018-03-15T05:00:46.049Z,37.07
2018-03-15T05:03:15.203Z,37.08
2018-03-15T05:05:44.481Z,37.38
2018-03-15T05:08:14.038Z,37.64
2018-03-15T05:10:43.232Z,38.32
2018-03-15T05:13:12.717Z,38.53
2018-03-15T05:15:41.930Z,37.95
2018-03-15T05:18:11.304Z,37.08
2018-03-15T05:20:40.580Z,37.99
2018-03-15T05:23:09.877Z,37.70
2018-03-15T05:25:39.176Z,37.63
2018-03-15T05:28:08.516Z,37.88
2018-03-15T05:30:37.681Z,37.62
2018-03-15T05:33:07.092Z,36.90
2018-03-15T05:35:36.650Z,36.32
2018-03-15T05:38:05.819Z,36.79
2018-03-15T05:40:35.190Z,37.21
2018-03-15T05:43:04.691Z,36.93
2018-03-15T05:45:33.938Z,36.57
2018-03-15T05:48:03.287Z,37.00
2018-03-15T05:50:33.018Z,37.15
2018-03-15T05:53:02.076Z,37.52
2018-03-15T05:55:31.066Z,37.83
2018-03-15T05:58:00.278Z,39.09
2018-03-15T06:00:29.810Z,37.82
2018-03-15T06:02:59.123Z,37.74
2018-03-15T06:05:28.709Z,37.77
2018-03-15T06:07:58.110Z,38.32
2018-03-15T06:10:27.491Z,38.64
2018-03-15T06:12:56.834Z,37.04
2018-03-15T06:15:26.307Z,36.95
2018-03-15T06:17:55.420Z,37.86
2018-03-15T06:20:24.493Z,38.78
2018-03-15T06:22:53.709Z,38.64
2018-03-15T06:25:23.128Z,38.09
2018-03-15T06:27:52.311Z,38.94
2018-03-15T07:03:53.901Z,36.18
2018-03-15T07:06:23.059Z,35.90
2018-03-15T07:08:52.079Z,36.68
2018-03-15T07:11:21.028Z,37.30
2018-03-15T07:13:49.924Z,35.92
2018-03-15T07:16:19.274Z,36.02
2018-03-15T07:18:48.273Z,36.32
2018-03-15T07:21:17.146Z,36.87
2018-03-15T07:23:46.327Z,37.03
2018-03-15T07:26:15.833Z,36.79
2018-03-15T07:28:45.294Z,36.84
2018-03-15T07:31:14.965Z,36.89
2018-03-15T07:33:44.257Z,37.32
2018-03-15T07:36:13.471Z,36.90
2018-03-15T07:38:42.297Z,36.64
2018-03-15T07:41:11.848Z,36.53
2018-03-15T07:43:41.064Z,36.40
2018-03-15T07:46:10.103Z,35.93
2018-03-15T07:48:39.193Z,37.08
2018-03-15T07:51:08.210Z,36.84
2018-03-15T07:53:37.312Z,36.52
2018-03-15T07:56:06.618Z,35.58
2018-03-15T07:58:35.656Z,35.75
2018-03-15T08:01:04.673Z,35.96
2018-03-15T08:03:34.092Z,36.07
2018-03-15T08:06:03.133Z,36.22
2018-03-15T08:08:32.203Z,36.16
2018-03-15T08:11:01.196Z,36.49
2018-03-15T08:13:30.194Z,36.47
2018-03-15T08:15:59.188Z,36.29
2018-03-15T08:18:28.247Z,36.01
2018-03-15T08:20:57.822Z,36.44
2018-03-15T08:23:26.832Z,36.03
2018-03-15T08:25:55.948Z,36.11
2018-03-15T08:28:25.488Z,35.88
2018-03-15T08:30:54.795Z,35.96
2018-03-15T08:33:24.048Z,36.16
2018-03-15T08:35:53.200Z,36.11
2018-03-15T08:38:23.238Z,35.39
2018-03-15T08:40:52.179Z,35.53
2018-03-15T08:43:21.156Z,36.01
2018-03-15T08:45:50.616Z,35.85
2018-03-15T08:48:19.697Z,35.39
2018-03-15T08:50:49.295Z,35.39
2018-03-15T08:53:18.642Z,35.20
2018-03-15T08:55:48.176Z,35.35
2018-03-15T08:58:17.289Z,35.25
2018-03-15T09:00:46.689Z,35.10
2018-03-15T09:03:16.235Z,35.13
2018-03-15T09:05:45.368Z,35.23
2018-03-15T09:08:14.848Z,34.83
2018-03-15T09:10:44.274Z,34.71
2018-03-15T09:13:13.107Z,35.02
2018-03-15T09:15:42.499Z,34.85
2018-03-15T09:18:11.398Z,34.53
2018-03-15T09:20:40.789Z,35.02
2018-03-15T09:23:09.923Z,35.16
2018-03-15T09:25:38.846Z,34.83
2018-03-15T09:28:08.140Z,34.86
2018-03-15T09:30:37.212Z,34.60
2018-03-15T09:33:07.384Z,34.76
2018-03-15T09:35:36.364Z,34.79
2018-03-15T09:38:05.438Z,35.02
2018-03-15T09:40:34.994Z,34.81
2018-03-15T09:43:04.736Z,34.82
2018-03-15T09:45:33.787Z,34.95
2018-03-15T09:48:03.039Z,35.08
2018-03-15T09:50:32.071Z,34.92
2018-03-15T09:53:01.327Z,34.92
2018-03-15T09:55:30.653Z,34.80
2018-03-15T09:57:59.977Z,34.65
2018-03-15T10:00:29.714Z,34.47
2018-03-15T10:02:59.427Z,34.55
2018-03-15T10:05:29.060Z,34.49
2018-03-15T10:07:59.287Z,34.26
2018-03-15T10:10:28.470Z,34.39
2018-03-15T10:12:58.508Z,34.47
2018-03-15T10:15:27.901Z,34.48
2018-03-15T10:17:57.798Z,34.34
2018-03-15T10:20:26.653Z,34.39
2018-03-15T10:22:56.374Z,34.35
2018-03-15T10:25:26.397Z,34.40
2018-03-15T10:27:55.382Z,34.13
2018-03-15T10:30:24.416Z,34.19
2018-03-15T10:32:59.370Z,34.14
2018-03-15T10:35:29.549Z,34.13
2018-03-15T10:37:59.611Z,34.12
2018-03-15T10:40:29.077Z,34.07
2018-03-15T10:42:59.534Z,34.01
2018-03-15T10:45:31.166Z,34.05
2018-03-15T10:48:02.779Z,34.03
2018-03-15T10:50:32.278Z,34.09
2018-03-15T10:53:01.011Z,34.09
2018-03-15T10:55:30.243Z,33.99
2018-03-15T10:57:59.554Z,33.93
2018-03-15T11:03:34.363Z,33.78
2018-03-15T11:06:08.939Z,33.82
2018-03-15T11:08:38.205Z,33.78
2018-03-15T11:11:07.589Z,33.83
2018-03-15T11:13:36.806Z,33.76
2018-03-15T11:16:06.043Z,33.76
2018-03-15T11:18:36.420Z,33.58
2018-03-15T11:21:05.744Z,33.56
2018-03-15T11:23:34.834Z,33.58
2018-03-15T11:26:04.272Z,33.56
2018-03-15T11:28:33.442Z,33.57
2018-03-15T11:31:02.650Z,33.45
2018-03-15T11:33:31.768Z,33.44
2018-03-15T11:36:01.104Z,33.45
2018-03-15T11:38:30.357Z,33.43
2018-03-15T11:40:59.568Z,33.42
2018-03-15T11:43:28.918Z,33.34
2018-03-15T11:45:58.276Z,33.22
2018-03-15T11:48:27.292Z,33.22
2018-03-15T11:50:56.788Z,33.18
2018-03-15T11:53:25.785Z,33.13
2018-03-15T11:55:54.972Z,33.08
2018-03-15T11:58:24.151Z,33.00
2018-03-15T12:00:53.510Z,32.90
2018-03-15T12:03:22.714Z,32.80
2018-03-15T12:05:51.866Z,32.78
2018-03-15T12:08:21.252Z,32.69
2018-03-15T12:10:50.522Z,32.64
2018-03-15T12:13:19.558Z,32.60
2018-03-15T12:15:49.023Z,32.55
2018-03-15T12:18:18.130Z,32.47
2018-03-15T12:20:47.419Z,32.37
2018-03-15T12:23:16.555Z,32.30
2018-03-15T12:25:45.757Z,32.25
2018-03-15T12:28:15.259Z,32.18
2018-03-15T12:30:45.300Z,32.11
2018-03-15T12:33:14.544Z,32.09
2018-03-15T12:35:43.861Z,32.00
2018-03-15T12:38:13.462Z,31.96
2018-03-15T12:40:42.281Z,31.91
2018-03-15T12:43:11.816Z,31.83
2018-03-15T12:45:40.920Z,31.71
2018-03-15T12:48:10.001Z,31.62
2018-03-15T12:50:39.196Z,31.49
2018-03-15T12:53:08.470Z,31.40
2018-03-15T12:55:37.824Z,31.32
2018-03-15T12:58:06.829Z,31.30
2018-03-15T13:00:36.209Z,31.23
2018-03-15T13:03:05.530Z,31.23
2018-03-15T13:05:34.694Z,31.22
2018-03-15T13:08:04.493Z,31.18
2018-03-15T13:10:33.504Z,31.11
2018-03-15T13:13:02.655Z,31.02
2018-03-15T13:15:31.708Z,30.97
2018-03-15T13:18:00.926Z,30.88
2018-03-15T13:20:30.016Z,30.80
2018-03-15T13:22:59.232Z,30.74
2018-03-15T13:25:28.896Z,30.69
2018-03-15T13:27:58.272Z,30.58
2018-03-15T13:30:27.250Z,30.56
2018-03-15T13:32:56.788Z,30.51
2018-03-15T13:35:25.787Z,30.46
2018-03-15T13:37:55.175Z,30.35
2018-03-15T13:40:24.281Z,30.35
2018-03-15T13:42:53.762Z,30.29
2018-03-15T13:45:22.954Z,30.25
2018-03-15T13:47:52.160Z,30.19
2018-03-15T13:50:21.554Z,30.11
2018-03-15T13:52:50.969Z,30.07
2018-03-15T13:55:20.329Z,30.05
2018-03-15T13:57:49.241Z,30.00
2018-03-15T14:00:18.501Z,29.94
2018-03-15T14:02:47.945Z,29.90
2018-03-15T14:05:17.405Z,29.97
2018-03-15T14:07:46.753Z,29.86
2018-03-15T14:10:16.416Z,29.71
2018-03-15T14:12:45.802Z,29.65
2018-03-15T14:15:15.222Z,29.69
2018-03-15T14:17:44.359Z,29.63
2018-03-15T14:20:13.587Z,29.55
2018-03-15T14:22:42.429Z,29.60
2018-03-15T14:25:11.384Z,29.50
2018-03-15T14:27:40.528Z,29.47
2018-03-15T14:30:09.845Z,29.40
2018-03-15T14:32:39.262Z,29.43
2018-03-15T14:35:08.959Z,29.31
2018-03-15T14:37:38.287Z,29.20
2018-03-15T14:40:07.677Z,29.11
2018-03-15T14:42:36.992Z,29.09
2018-03-15T14:45:06.313Z,29.03
2018-03-15T14:47:35.442Z,28.96
2018-03-15T14:50:04.526Z,28.95
2018-03-15T14:52:33.965Z,28.95
2018-03-15T14:55:03.008Z,28.87
2018-03-15T14:57:32.310Z,28.86
2018-03-15T15:00:01.225Z,28.82
2018-03-15T15:02:30.320Z,28.78
2018-03-15T15:04:59.813Z,28.72
2018-03-15T15:07:28.945Z,28.67
2018-03-15T15:09:58.063Z,28.65
2018-03-15T15:12:27.550Z,28.61
2018-03-15T15:14:56.769Z,28.57
2018-03-15T15:17:25.958Z,28.50
2018-03-15T15:19:55.283Z,28.43
2018-03-15T15:22:24.404Z,28.39
2018-03-15T15:24:53.765Z,28.40
2018-03-15T15:27:23.150Z,28.30
2018-03-15T15:29:52.286Z,28.28
2018-03-15T15:32:21.255Z,28.22
2018-03-15T15:34:50.850Z,28.20
2018-03-15T15:37:20.207Z,28.13
2018-03-15T15:39:49.643Z,28.09
2018-03-15T15:42:18.909Z,28.04
2018-03-15T15:44:47.945Z,28.04
2018-03-15T15:47:17.031Z,28.03
2018-03-15T15:49:46.736Z,28.04
2018-03-15T15:52:15.922Z,28.02
2018-03-15T15:54:45.712Z,28.01
2018-03-15T15:57:15.000Z,27.98
2018-03-15T15:59:44.241Z,27.95
2018-03-15T16:02:13.483Z,27.92
2018-03-15T16:04:42.409Z,27.84
2018-03-15T16:07:11.691Z,27.83
2018-03-15T16:09:41.082Z,27.76
2018-03-15T16:12:10.441Z,27.75
2018-03-15T16:14:40.112Z,27.72
2018-03-15T16:19:25.675Z,27.67
2018-03-15T16:24:19.357Z,27.54
2018-03-15T16:29:18.002Z,27.44
2018-03-15T16:31:47.269Z,27.44
2018-03-15T16:34:16.473Z,27.42
2018-03-15T16:36:46.280Z,27.39
2018-03-15T16:39:15.281Z,27.35
2018-03-15T16:41:44.376Z,27.29
2018-03-15T16:44:13.937Z,27.24
2018-03-15T16:46:43.145Z,27.14
2018-03-15T16:49:12.469Z,27.13
2018-03-15T16:51:41.860Z,27.09
2018-03-15T16:54:10.969Z,27.01
2018-03-15T16:56:41.999Z,26.91
2018-03-15T16:59:11.552Z,26.87
2018-03-15T17:01:40.929Z,26.90
2018-03-15T17:04:10.054Z,26.85
2018-03-15T17:06:39.140Z,26.82
2018-03-15T17:09:08.780Z,26.80
2018-03-15T17:11:37.931Z,26.74
2018-03-15T17:16:23.985Z,26.66
2018-03-15T17:18:53.047Z,26.61
2018-03-15T17:21:22.720Z,26.68
2018-03-15T17:23:52.164Z,26.77
2018-03-15T17:26:21.978Z,26.75
2018-03-15T17:28:51.999Z,26.75
2018-03-15T17:31:21.934Z,26.81
2018-03-15T17:33:52.203Z,26.82
2018-03-15T17:36:22.179Z,26.77
2018-03-15T17:38:51.516Z,26.78
2018-03-15T17:41:22.153Z,26.75
2018-03-15T17:43:51.905Z,26.74
2018-03-15T17:46:21.268Z,26.65
2018-03-15T17:48:50.864Z,26.67
2018-03-15T17:51:20.826Z,26.66
2018-03-15T17:53:49.993Z,26.62
2018-03-15T17:56:19.648Z,26.54
2018-03-15T17:58:48.866Z,26.53
2018-03-15T18:01:18.034Z,26.47
2018-03-15T18:03:47.413Z,26.46
2018-03-15T18:06:16.744Z,26.47
2018-03-15T18:08:46.394Z,26.41
2018-03-15T18:11:15.948Z,26.35
2018-03-15T18:13:45.103Z,26.30
2018-03-15T18:16:14.095Z,26.28
2018-03-15T18:18:43.255Z,26.26
2018-03-15T18:21:12.634Z,26.23
2018-03-15T18:23:41.709Z,26.24
2018-03-15T18:26:11.070Z,26.16
2018-03-15T18:28:40.412Z,26.15
2018-03-15T18:31:09.791Z,26.08
2018-03-15T18:33:39.196Z,26.01
2018-03-15T18:36:08.441Z,25.95
2018-03-15T18:38:37.993Z,25.99
2018-03-15T18:41:07.391Z,25.91
2018-03-15T18:43:36.529Z,25.84
2018-03-15T18:46:06.716Z,25.82
2018-03-15T18:48:35.864Z,25.76
2018-03-15T18:51:05.174Z,25.70
2018-03-15T18:53:34.490Z,25.70
2018-03-15T18:56:04.047Z,25.67
2018-03-15T18:58:33.113Z,25.57
2018-03-15T19:01:02.076Z,25.52
2018-03-15T19:03:32.220Z,25.53
2018-03-15T19:06:01.358Z,25.53
2018-03-15T19:08:31.888Z,25.47
2018-03-15T19:11:00.916Z,25.42
2018-03-15T19:13:29.805Z,25.46
2018-03-15T19:15:58.967Z,25.38
2018-03-15T19:18:28.405Z,25.38
2018-03-15T19:20:57.827Z,25.34
2018-03-15T19:23:27.366Z,25.32
2018-03-15T19:25:56.398Z,25.34
2018-03-15T19:28:25.646Z,25.30
2018-03-15T19:30:54.774Z,25.30
2018-03-15T19:33:24.333Z,25.32
2018-03-15T19:35:53.906Z,25.33
2018-03-15T19:38:23.129Z,25.29
2018-03-15T19:40:52.283Z,25.22
2018-03-15T19:43:21.424Z,25.08
2018-03-15T19:45:50.795Z,25.08
2018-03-15T19:48:20.041Z,25.07
2018-03-15T19:50:49.290Z,25.09
2018-03-15T19:53:18.566Z,25.08
2018-03-15T19:55:48.052Z,24.98
2018-03-15T19:58:17.495Z,24.97
2018-03-15T20:00:46.669Z,24.99
2018-03-15T20:03:15.616Z,25.00
2018-03-15T20:05:44.466Z,24.98
2018-03-15T20:08:14.080Z,24.93
2018-03-15T20:10:43.520Z,24.90
2018-03-15T20:13:12.856Z,24.90
2018-03-15T20:15:50.171Z,24.89
2018-03-15T20:18:19.369Z,24.95
2018-03-15T20:20:48.375Z,24.86
2018-03-15T20:23:23.193Z,24.87
2018-03-15T20:25:52.373Z,24.79
2018-03-15T20:28:27.514Z,24.75
2018-03-15T20:30:56.657Z,24.75
2018-03-15T20:33:31.514Z,24.67
2018-03-15T20:36:00.592Z,24.68
2018-03-15T20:38:29.767Z,24.65
2018-03-15T20:41:04.508Z,24.67
2018-03-15T20:43:35.038Z,24.63
2018-03-15T20:46:09.835Z,24.66
2018-03-15T20:48:44.491Z,24.63
2018-03-15T20:51:13.821Z,24.60
2018-03-15T20:53:43.832Z,24.59
2018-03-15T20:56:13.243Z,24.59
2018-03-15T20:58:42.355Z,24.57
2018-03-15T21:01:11.810Z,24.52
2018-03-15T21:03:41.118Z,24.51
2018-03-15T21:06:10.320Z,24.48
2018-03-15T21:08:39.722Z,24.46
2018-03-15T21:11:08.863Z,24.45
2018-03-15T21:13:38.053Z,24.45
2018-03-15T21:16:06.795Z,24.40
2018-03-15T21:18:36.188Z,24.41
2018-03-15T21:21:05.232Z,24.50
2018-03-15T21:26:29.259Z,24.48
2018-03-15T21:28:58.606Z,24.37
2018-03-15T21:31:27.910Z,24.31
2018-03-15T21:33:57.189Z,24.37
2018-03-15T21:36:26.245Z,24.36
2018-03-15T21:38:55.672Z,24.25
2018-03-15T21:41:24.935Z,24.13
2018-03-15T21:43:54.289Z,24.10
2018-03-15T21:46:23.699Z,24.09
2018-03-15T21:48:52.937Z,24.16
2018-03-15T21:51:22.060Z,24.12
2018-03-15T21:53:51.267Z,24.04
2018-03-15T21:56:20.655Z,24.11
2018-03-15T21:58:49.792Z,24.07
2018-03-15T22:01:19.067Z,24.00
2018-03-15T22:03:48.284Z,23.99
2018-03-15T22:06:17.673Z,23.93
2018-03-15T22:08:46.857Z,23.85
2018-03-15T22:11:15.975Z,23.79
2018-03-15T22:13:45.201Z,23.85
2018-03-15T22:16:14.479Z,23.81
2018-03-15T22:18:44.734Z,23.78
2018-03-15T22:21:14.168Z,23.76
2018-03-15T22:23:44.511Z,23.75
2018-03-15T22:26:13.734Z,23.72
2018-03-15T22:28:42.934Z,23.71
2018-03-15T22:31:12.546Z,23.64
2018-03-15T22:33:42.008Z,23.61
2018-03-15T22:36:11.193Z,23.62
2018-03-15T22:38:40.733Z,23.61
2018-03-15T22:41:10.031Z,23.62
2018-03-15T22:43:39.172Z,23.60
2018-03-15T22:46:08.818Z,23.66
2018-03-15T22:48:38.296Z,23.59
2018-03-15T22:51:07.263Z,23.61
2018-03-15T22:53:36.968Z,23.56
2018-03-15T22:56:06.263Z,23.54
2018-03-15T22:58:35.441Z,23.54
2018-03-15T23:01:05.260Z,23.53
2018-03-15T23:03:34.330Z,23.28
2018-03-15T23:06:03.753Z,23.22
2018-03-15T23:08:33.118Z,23.21
2018-03-15T23:11:01.943Z,23.28
2018-03-15T23:13:31.301Z,23.25
2018-03-15T23:16:00.389Z,23.27
2018-03-15T23:18:29.534Z,23.29
2018-03-15T23:20:59.375Z,23.14
2018-03-15T23:23:28.787Z,23.13
2018-03-15T23:25:58.169Z,23.10
2018-03-15T23:28:27.449Z,23.13
2018-03-15T23:30:56.808Z,23.09
2018-03-15T23:33:26.014Z,23.09
2018-03-15T23:35:55.421Z,23.13
2018-03-15T23:38:24.912Z,23.18
2018-03-15T23:40:54.170Z,23.16
2018-03-15T23:43:23.452Z,23.16
2018-03-15T23:45:52.922Z,23.20
2018-03-15T23:48:22.402Z,23.21
2018-03-15T23:50:51.771Z,23.22
2018-03-15T23:53:21.204Z,23.20
2018-03-15T23:55:50.453Z,23.15
2018-03-15T23:58:19.786Z,23.18
